Time,TemperatureF,DewpointF,PressureIn,WindDirection,WindDirectionDegrees,WindSpeedMPH,WindSpeedGustMPH,Humidity,HourlyPrecipIn,Conditions,Clouds,dailyrainin,SoftwareType,DateUTC
2013-01-14 00:03:00,48.7,45.9,-100.00,NW,315,0.0,0.0,90,0.00,,,0.00,WSDL version 423,2013-01-14 05:03:00,
2013-01-14 00:06:00,48.7,45.9,-100.00,NW,315,0.0,0.0,90,0.00,,,0.00,WSDL version 423,2013-01-14 05:06:00,
2013-01-14 00:09:00,48.8,46.0,-100.00,NW,315,0.0,0.0,90,0.00,,,0.00,WSDL version 423,2013-01-14 05:09:00,
2013-01-14 00:15:00,48.9,46.1,-100.00,NW,315,0.0,0.0,90,0.00,,,0.00,WSDL version 423,2013-01-14 05:15:00,
2013-01-14 00:21:00,48.8,46.0,-100.00,NW,315,0.0,0.0,90,0.00,,,0.00,WSDL version 423,2013-01-14 05:21:00,
2013-01-14 00:27:00,48.9,46.1,-100.00,NW,315,0.0,0.0,90,0.00,,,0.00,WSDL version 423,2013-01-14 05:27:00,
2013-01-14 00:33:00,48.9,46.1,-100.00,NW,315,0.0,0.0,90,-99.99,,,-99.99,WSDL version 423,2013-01-14 05:33:00,
2013-01-14 00:39:00,48.9,46.1,-100.00,NW,315,0.0,0.0,90,0.00,,,0.00,WSDL version 423,2013-01-14 05:39:00,
2013-01-14 00:45:00,48.9,46.1,-100.00,NW,315,0.0,0.0,90,0.00,,,0.00,WSDL version 423,2013-01-14 05:45:00,
2013-01-14 00:51:00,48.9,46.1,-100.00,NW,320,0.4,2.2,90,0.00,,,0.00,WSDL version 423,2013-01-14 05:51:00,
2013-01-14 00:57:00,48.9,46.1,-100.00,WNW,298,0.0,2.2,90,0.00,,,0.00,WSDL version 423,2013-01-14 05:57:00,
2013-01-14 01:03:00,48.9,46.1,-100.00,WNW,293,0.0,0.0,90,0.00,,,0.00,WSDL version 423,2013-01-14 06:03:00,
2013-01-14 01:09:00,49.1,46.3,-100.00,NW,315,0.0,0.0,90,0.00,,,0.00,WSDL version 423,2013-01-14 06:09:00,
2013-01-14 01:15:00,49.1,46.3,-100.00,NW,315,0.0,0.0,90,0.00,,,0.00,WSDL version 423,2013-01-14 06:15:00,
2013-01-14 01:21:00,49.0,46.2,-100.00,NW,315,0.0,0.0,90,0.00,,,0.00,WSDL version 423,2013-01-14 06:21:00,
2013-01-14 01:27:00,49.1,46.3,-100.00,NW,315,0.0,0.0,90,0.00,,,0.00,WSDL version 423,2013-01-14 06:27:00,
2013-01-14 01:33:00,49.1,46.3,-100.00,NW,315,0.0,0.0,90,0.00,,,0.00,WSDL version 423,2013-01-14 06:33:00,
2013-01-14 01:39:00,49.1,46.3,-100.00,NW,315,0.0,0.0,90,0.00,,,0.00,WSDL version 423,2013-01-14 06:39:00,
2013-01-14 01:45:00,49.1,46.3,-100.00,West,273,0.0,0.0,90,0.00,,,0.00,WSDL version 423,2013-01-14 06:45:00,
2013-01-14 01:51:00,49.1,46.5,-100.00,West,270,0.0,0.0,91,0.00,,,0.00,WSDL version 423,2013-01-14 06:51:00,
2013-01-14 01:57:00,49.1,46.6,-100.00,West,270,0.0,0.0,91,0.00,,,0.00,WSDL version 423,2013-01-14 06:57:00,
2013-01-14 02:03:00,49.1,46.6,-100.00,West,270,0.0,0.0,91,0.00,,,0.00,WSDL version 423,2013-01-14 07:03:00,
2013-01-14 02:09:00,49.2,46.7,-100.00,West,270,0.0,0.0,91,-99.99,,,-99.99,WSDL version 423,2013-01-14 07:09:00,
2013-01-14 02:15:00,49.3,46.8,-100.00,West,270,0.0,0.0,91,0.00,,,0.00,WSDL version 423,2013-01-14 07:15:00,
2013-01-14 02:21:00,49.3,46.8,-100.00,South,180,0.0,0.0,91,0.00,,,0.00,WSDL version 423,2013-01-14 07:21:00,
2013-01-14 02:27:00,49.3,46.8,-100.00,South,180,0.0,0.0,91,0.00,,,0.00,WSDL version 423,2013-01-14 07:27:00,
2013-01-14 02:33:00,49.3,46.8,-100.00,South,180,0.0,0.0,91,0.00,,,0.00,WSDL version 423,2013-01-14 07:33:00,
2013-01-14 02:39:00,49.3,46.8,-100.00,South,180,0.0,0.0,91,0.00,,,0.00,WSDL version 423,2013-01-14 07:39:00,
2013-01-14 02:45:00,49.5,47.0,-100.00,South,180,0.0,0.0,91,-99.99,,,-99.99,WSDL version 423,2013-01-14 07:45:00,
2013-01-14 02:51:00,49.5,47.0,-100.00,NW,315,0.0,0.0,91,0.00,,,0.00,WSDL version 423,2013-01-14 07:51:00,
2013-01-14 02:57:00,49.5,47.0,-100.00,NW,315,0.0,0.0,91,0.00,,,0.00,WSDL version 423,2013-01-14 07:57:00,
2013-01-14 03:03:00,49.5,47.0,-100.00,NW,315,0.0,0.0,91,0.00,,,0.00,WSDL version 423,2013-01-14 08:03:00,
2013-01-14 03:09:00,49.5,47.0,-100.00,NW,315,0.0,0.0,91,0.00,,,0.00,WSDL version 423,2013-01-14 08:09:00,
2013-01-14 03:15:00,49.5,47.0,-100.00,NW,315,0.0,0.0,91,0.00,,,0.00,WSDL version 423,2013-01-14 08:15:00,
2013-01-14 03:21:00,49.5,47.0,-100.00,NW,315,0.0,0.0,91,0.00,,,0.00,WSDL version 423,2013-01-14 08:21:00,
2013-01-14 03:27:00,49.5,47.0,-100.00,NW,315,0.0,0.0,91,0.00,,,0.00,WSDL version 423,2013-01-14 08:27:00,
2013-01-14 03:33:00,49.5,47.0,-100.00,East,90,0.0,0.0,91,0.00,,,0.00,WSDL version 423,2013-01-14 08:33:00,
2013-01-14 03:39:00,49.5,47.0,-100.00,East,90,0.0,0.0,91,0.00,,,0.00,WSDL version 423,2013-01-14 08:39:00,
2013-01-14 03:45:00,49.6,47.2,-100.00,ENE,68,0.0,0.0,91,0.00,,,0.00,WSDL version 423,2013-01-14 08:45:00,
2013-01-14 03:51:00,49.6,47.2,-100.00,ENE,68,0.0,0.0,91,0.00,,,0.00,WSDL version 423,2013-01-14 08:51:00,
2013-01-14 03:57:00,49.6,47.2,-100.00,ENE,68,0.0,0.0,91,0.00,,,0.00,WSDL version 423,2013-01-14 08:57:00,
2013-01-14 04:03:00,49.6,47.2,-100.00,ENE,70,0.0,0.0,91,0.00,,,0.00,WSDL version 423,2013-01-14 09:03:00,
2013-01-14 04:09:00,49.6,47.2,-100.00,SE,135,0.0,0.0,91,0.00,,,0.00,WSDL version 423,2013-01-14 09:09:00,
2013-01-14 04:15:00,49.6,47.4,-100.00,SE,135,0.0,0.0,92,0.00,,,0.00,WSDL version 423,2013-01-14 09:15:00,
2013-01-14 04:21:00,49.6,47.5,-100.00,SE,135,0.0,0.0,92,0.00,,,0.00,WSDL version 423,2013-01-14 09:21:00,
2013-01-14 04:27:00,49.6,47.5,-100.00,SE,132,0.0,0.0,92,0.00,,,0.00,WSDL version 423,2013-01-14 09:27:00,
2013-01-14 04:33:00,49.5,47.3,-100.00,SE,141,0.0,1.3,92,0.00,,,0.00,WSDL version 423,2013-01-14 09:33:00,
2013-01-14 04:39:00,49.3,47.2,-100.00,ESE,113,0.0,1.6,92,0.00,,,0.00,WSDL version 423,2013-01-14 09:39:00,
2013-01-14 04:45:00,49.3,47.2,-100.00,ESE,113,0.0,1.6,92,0.00,,,0.00,WSDL version 423,2013-01-14 09:45:00,
2013-01-14 04:51:00,49.4,47.3,-100.00,ESE,113,0.0,0.0,92,0.00,,,0.00,WSDL version 423,2013-01-14 09:51:00,
2013-01-14 04:57:00,49.4,47.2,-100.00,ESE,113,0.0,0.0,92,0.00,,,0.00,WSDL version 423,2013-01-14 09:57:00,
2013-01-14 05:03:00,49.3,47.1,-100.00,ESE,113,0.0,0.0,92,0.00,,,0.00,WSDL version 423,2013-01-14 10:03:00,
2013-01-14 05:09:00,49.4,47.2,-100.00,ESE,113,0.0,0.0,92,0.00,,,0.00,WSDL version 423,2013-01-14 10:09:00,
2013-01-14 05:15:00,49.4,47.3,-100.00,NE,45,0.0,0.0,92,0.00,,,0.00,WSDL version 423,2013-01-14 10:15:00,
2013-01-14 05:21:00,49.4,47.3,-100.00,NW,315,0.0,0.0,92,0.00,,,0.00,WSDL version 423,2013-01-14 10:21:00,
2013-01-14 05:27:00,49.5,47.3,-100.00,WNW,290,2.7,3.4,92,0.00,,,0.00,WSDL version 423,2013-01-14 10:27:00,
2013-01-14 05:33:00,49.5,47.3,-100.00,WNW,295,1.1,3.6,92,0.00,,,0.00,WSDL version 423,2013-01-14 10:33:00,
2013-01-14 05:39:00,49.5,47.3,-100.00,NW,315,1.5,3.6,92,0.00,,,0.00,WSDL version 423,2013-01-14 10:39:00,
2013-01-14 05:45:00,49.6,47.4,-100.00,WNW,300,0.0,3.4,92,0.00,,,0.00,WSDL version 423,2013-01-14 10:45:00,
2013-01-14 05:51:00,49.6,47.5,-100.00,West,270,0.0,2.5,92,0.00,,,0.00,WSDL version 423,2013-01-14 10:51:00,
2013-01-14 05:57:00,49.6,47.5,-100.00,NW,326,2.6,3.8,92,0.00,,,0.00,WSDL version 423,2013-01-14 10:57:00,
2013-01-14 06:03:00,49.7,47.7,-100.00,SE,124,1.3,4.9,93,0.00,,,0.00,WSDL version 423,2013-01-14 11:03:00,
2013-01-14 06:09:00,49.8,47.7,-100.00,NW,323,1.9,4.9,92,0.00,,,0.00,WSDL version 423,2013-01-14 11:09:00,
2013-01-14 06:15:00,50.0,47.8,-100.00,SSE,151,0.2,4.0,92,0.00,,,0.00,WSDL version 423,2013-01-14 11:15:00,
2013-01-14 06:21:00,50.2,48.2,-100.00,SE,135,2.1,4.9,93,0.00,,,0.00,WSDL version 423,2013-01-14 11:21:00,
2013-01-14 06:27:00,50.5,48.9,-100.00,ESE,118,2.6,6.0,94,0.00,,,0.00,WSDL version 423,2013-01-14 11:27:00,
2013-01-14 06:33:00,50.5,49.3,-100.00,SE,132,3.9,7.8,96,0.00,,,0.00,WSDL version 423,2013-01-14 11:33:00,
2013-01-14 06:39:00,50.4,49.1,-100.00,SE,145,4.5,7.8,96,0.00,,,0.00,WSDL version 423,2013-01-14 11:39:00,
2013-01-14 06:45:00,50.5,49.3,-100.00,ESE,115,3.0,6.0,96,0.00,,,0.00,WSDL version 423,2013-01-14 11:45:00,
2013-01-14 06:51:00,50.6,49.4,-100.00,SE,141,1.0,4.9,96,0.00,,,0.00,WSDL version 423,2013-01-14 11:51:00,
2013-01-14 06:57:00,50.7,49.5,-100.00,ESE,113,2.5,5.6,96,0.00,,,0.00,WSDL version 423,2013-01-14 11:57:00,
2013-01-14 07:03:00,50.7,49.5,-100.00,ESE,113,2.0,5.4,96,0.00,,,0.00,WSDL version 423,2013-01-14 12:03:00,
2013-01-14 07:09:00,50.5,49.3,-100.00,SE,133,1.2,5.4,96,0.00,,,0.00,WSDL version 423,2013-01-14 12:09:00,
2013-01-14 07:15:00,50.6,49.3,-100.00,SE,135,0.0,3.4,96,0.00,,,0.00,WSDL version 423,2013-01-14 12:15:00,
2013-01-14 07:21:00,50.5,49.3,-100.00,ESE,113,0.3,2.0,96,0.00,,,0.00,WSDL version 423,2013-01-14 12:21:00,
2013-01-14 07:27:00,50.6,49.3,-100.00,SSE,155,0.0,2.0,96,0.00,,,0.00,WSDL version 423,2013-01-14 12:27:00,
2013-01-14 07:33:00,50.7,49.5,-100.00,ESE,118,2.0,3.6,96,0.00,,,0.00,WSDL version 423,2013-01-14 12:33:00,
2013-01-14 07:39:00,50.7,49.5,-100.00,ESE,113,0.0,3.6,96,-99.99,,,-99.99,WSDL version 423,2013-01-14 12:39:00,
2013-01-14 07:45:00,50.9,49.6,-100.00,East,90,0.7,2.0,94,0.00,,,0.00,WSDL version 423,2013-01-14 12:45:00,
2013-01-14 07:51:00,50.9,49.4,-100.00,SSW,205,0.0,2.0,94,0.00,,,0.00,WSDL version 423,2013-01-14 12:51:00,
2013-01-14 07:57:00,51.0,49.5,-100.00,East,90,0.0,0.0,94,-99.99,,,-99.99,WSDL version 423,2013-01-14 12:57:00,
2013-01-14 08:03:00,51.1,49.5,-100.00,North,6,0.0,1.1,94,0.00,,,0.00,WSDL version 423,2013-01-14 13:03:00,
2013-01-14 08:09:00,51.1,49.6,-100.00,North,360,0.0,1.1,94,0.00,,,0.00,WSDL version 423,2013-01-14 13:09:00,
2013-01-14 08:15:00,51.3,49.7,-100.00,South,180,0.0,1.3,94,-99.99,,,-99.99,WSDL version 423,2013-01-14 13:15:00,
2013-01-14 08:21:00,51.3,49.7,-100.00,West,270,0.0,0.0,94,0.00,,,0.00,WSDL version 423,2013-01-14 13:21:00,
2013-01-14 08:27:00,51.3,49.7,-100.00,South,183,0.0,1.3,94,0.00,,,0.00,WSDL version 423,2013-01-14 13:27:00,
2013-01-14 08:33:00,51.4,49.9,-100.00,East,90,0.0,1.3,94,0.00,,,0.00,WSDL version 423,2013-01-14 13:33:00,
2013-01-14 08:39:00,51.6,50.1,-100.00,East,98,0.5,3.4,94,0.00,,,0.00,WSDL version 423,2013-01-14 13:39:00,
2013-01-14 08:45:00,51.6,50.1,-100.00,ESE,107,0.3,3.4,94,-99.99,,,-99.99,WSDL version 423,2013-01-14 13:45:00,
2013-01-14 08:51:00,51.6,50.1,-100.00,SE,135,0.0,2.0,94,0.00,,,0.00,WSDL version 423,2013-01-14 13:51:00,
2013-01-14 08:57:00,51.6,49.8,-100.00,SE,130,0.0,2.0,93,0.00,,,0.00,WSDL version 423,2013-01-14 13:57:00,
2013-01-14 09:03:00,51.8,49.9,-100.00,East,93,0.0,1.3,93,0.00,,,0.00,WSDL version 423,2013-01-14 14:03:00,
2013-01-14 09:09:00,51.8,49.9,-100.00,East,90,0.0,1.3,93,0.00,,,0.00,WSDL version 423,2013-01-14 14:09:00,
2013-01-14 09:15:00,52.0,50.1,-100.00,South,170,0.0,0.0,93,0.00,,,0.00,WSDL version 423,2013-01-14 14:15:00,
2013-01-14 09:21:00,52.1,50.2,-100.00,South,180,0.0,0.0,93,-99.99,,,-99.99,WSDL version 423,2013-01-14 14:21:00,
2013-01-14 09:27:00,52.4,50.6,-100.00,ESE,103,0.3,1.3,93,0.00,,,0.00,WSDL version 423,2013-01-14 14:27:00,
2013-01-14 09:33:00,52.7,50.8,-100.00,SE,125,0.3,2.9,93,0.00,,,0.00,WSDL version 423,2013-01-14 14:33:00,
2013-01-14 09:39:00,52.9,51.0,-100.00,SSE,155,0.1,2.9,93,0.00,,,0.00,WSDL version 423,2013-01-14 14:39:00,
2013-01-14 09:45:00,53.1,51.2,-100.00,East,90,0.0,1.3,93,0.00,,,0.00,WSDL version 423,2013-01-14 14:45:00,
2013-01-14 09:51:00,53.4,51.5,-100.00,SE,132,0.0,1.3,92,0.00,,,0.00,WSDL version 423,2013-01-14 14:51:00,
2013-01-14 09:57:00,53.9,51.7,-100.00,ENE,65,0.8,2.0,92,0.00,,,0.00,WSDL version 423,2013-01-14 14:57:00,
2013-01-14 10:03:00,54.2,52.0,-100.00,SSE,155,0.5,3.1,92,-99.99,,,-99.99,WSDL version 423,2013-01-14 15:03:00,
2013-01-14 10:09:00,54.6,52.4,-100.00,ESE,119,0.5,3.6,92,0.00,,,0.00,WSDL version 423,2013-01-14 15:09:00,
2013-01-14 10:15:00,55.1,52.8,-100.00,ESE,115,0.1,2.2,91,0.00,,,0.00,WSDL version 423,2013-01-14 15:15:00,
2013-01-14 10:21:00,55.8,53.2,-100.00,SSE,158,0.0,2.0,91,0.00,,,0.00,WSDL version 423,2013-01-14 15:21:00,
2013-01-14 10:27:00,55.9,53.1,-100.00,SE,124,1.2,4.3,90,0.00,,,0.00,WSDL version 423,2013-01-14 15:27:00,
2013-01-14 10:33:00,56.0,52.8,-100.00,East,98,0.3,3.8,89,0.00,,,0.00,WSDL version 423,2013-01-14 15:33:00,
2013-01-14 10:39:00,56.3,53.0,-100.00,ESE,105,0.4,3.6,89,0.00,,,0.00,WSDL version 423,2013-01-14 15:39:00,
2013-01-14 10:45:00,56.4,52.8,-100.00,East,101,0.5,3.6,88,-99.99,,,-99.99,WSDL version 423,2013-01-14 15:45:00,
2013-01-14 10:51:00,56.7,53.1,-100.00,SE,135,0.0,3.4,88,0.00,,,0.00,WSDL version 423,2013-01-14 15:51:00,
2013-01-14 10:57:00,56.8,53.1,-100.00,ESE,103,1.4,5.4,87,-99.99,,,-99.99,WSDL version 423,2013-01-14 15:57:00,
2013-01-14 11:03:00,57.1,53.2,-100.00,East,98,0.6,5.4,87,0.00,,,0.00,WSDL version 423,2013-01-14 16:03:00,
2013-01-14 11:09:00,57.3,53.0,-100.00,ESE,115,1.4,3.1,86,0.00,,,0.00,WSDL version 423,2013-01-14 16:09:00,
2013-01-14 11:15:00,57.6,53.1,-100.00,ESE,115,2.5,3.4,84,-99.99,,,-99.99,WSDL version 423,2013-01-14 16:15:00,
2013-01-14 11:21:00,57.7,52.8,-100.00,ESE,104,0.8,3.4,83,0.00,,,0.00,WSDL version 423,2013-01-14 16:21:00,
2013-01-14 11:27:00,57.7,52.7,-100.00,ESE,109,3.0,4.0,83,0.00,,,0.00,WSDL version 423,2013-01-14 16:27:00,
2013-01-14 11:33:00,57.7,52.3,-100.00,SE,145,0.9,4.3,82,0.00,,,0.00,WSDL version 423,2013-01-14 16:33:00,
2013-01-14 11:39:00,57.9,52.5,-100.00,SE,135,2.3,4.3,82,0.00,,,0.00,WSDL version 423,2013-01-14 16:39:00,
2013-01-14 11:45:00,58.1,51.9,-100.00,SE,138,0.8,5.8,79,0.00,,,0.00,WSDL version 423,2013-01-14 16:45:00,
2013-01-14 11:51:00,58.5,51.8,-100.00,SSE,166,1.0,3.4,78,0.00,,,0.00,WSDL version 423,2013-01-14 16:51:00,
2013-01-14 11:57:00,58.3,50.2,-100.00,SE,146,2.7,7.6,74,-99.99,,,-99.99,WSDL version 423,2013-01-14 16:57:00,
2013-01-14 12:03:00,58.1,50.1,-100.00,NW,312,1.9,6.0,75,0.00,,,0.00,WSDL version 423,2013-01-14 17:03:00,
2013-01-14 12:09:00,57.8,48.4,-100.00,SE,127,2.5,5.6,71,0.00,,,0.00,WSDL version 423,2013-01-14 17:09:00,
2013-01-14 12:15:00,57.6,46.9,-100.00,SE,129,2.6,6.5,68,0.00,,,0.00,WSDL version 423,2013-01-14 17:15:00,
2013-01-14 12:21:00,57.4,47.5,-100.00,SSE,158,2.7,6.5,69,-99.99,,,-99.99,WSDL version 423,2013-01-14 17:21:00,
2013-01-14 12:27:00,57.2,47.0,-100.00,SSE,160,3.2,5.6,68,0.00,,,0.00,WSDL version 423,2013-01-14 17:27:00,
2013-01-14 12:33:00,57.2,46.6,-100.00,ESE,122,0.9,5.6,68,0.00,,,0.00,WSDL version 423,2013-01-14 17:33:00,
2013-01-14 12:39:00,57.4,46.5,-100.00,SE,141,2.6,4.7,67,0.00,,,0.00,WSDL version 423,2013-01-14 17:39:00,
2013-01-14 12:45:00,57.2,46.7,-100.00,SSW,203,0.1,4.9,69,0.00,,,0.00,WSDL version 423,2013-01-14 17:45:00,
2013-01-14 12:51:00,57.2,47.1,-100.00,SE,129,1.9,3.8,69,0.00,,,0.00,WSDL version 423,2013-01-14 17:51:00,
2013-01-14 12:57:00,57.1,47.3,-100.00,SE,135,0.6,3.8,70,0.00,,,0.00,WSDL version 423,2013-01-14 17:57:00,
2013-01-14 13:03:00,57.1,47.3,-100.00,South,174,1.5,3.4,69,0.00,,,0.00,WSDL version 423,2013-01-14 18:03:00,
2013-01-14 13:09:00,57.0,46.8,-100.00,SE,140,2.4,4.0,68,0.00,,,0.00,WSDL version 423,2013-01-14 18:09:00,
2013-01-14 13:15:00,57.0,46.7,-100.00,WSW,248,1.7,4.0,69,0.00,,,0.00,WSDL version 423,2013-01-14 18:15:00,
2013-01-14 13:21:00,57.0,46.9,-100.00,SSE,155,0.9,3.4,68,0.00,,,0.00,WSDL version 423,2013-01-14 18:21:00,
2013-01-14 13:27:00,57.4,47.2,-100.00,SE,135,1.1,3.1,69,0.00,,,0.00,WSDL version 423,2013-01-14 18:27:00,
2013-01-14 13:33:00,57.5,46.2,-100.00,South,176,3.2,4.7,64,0.00,,,0.00,WSDL version 423,2013-01-14 18:33:00,
2013-01-14 13:39:00,57.5,45.7,-100.00,SSE,148,1.3,5.4,65,0.00,,,0.00,WSDL version 423,2013-01-14 18:39:00,
2013-01-14 13:45:00,57.6,45.9,-100.00,WSW,258,1.2,5.4,66,0.00,,,0.00,WSDL version 423,2013-01-14 18:45:00,
2013-01-14 13:51:00,57.4,45.8,-100.00,ENE,58,0.6,5.8,65,-99.99,,,-99.99,WSDL version 423,2013-01-14 18:51:00,
2013-01-14 13:57:00,57.3,44.3,-100.00,ESE,107,3.3,4.7,59,0.00,,,0.00,WSDL version 423,2013-01-14 18:57:00,
2013-01-14 14:03:00,57.0,43.7,-100.00,SSE,149,3.3,5.6,59,0.00,,,0.00,WSDL version 423,2013-01-14 19:03:00,
2013-01-14 14:09:00,56.8,43.2,-100.00,SE,124,1.5,5.6,60,-99.99,,,-99.99,WSDL version 423,2013-01-14 19:09:00,
2013-01-14 14:15:00,56.8,43.9,-100.00,SE,141,2.2,3.1,61,0.00,,,0.00,WSDL version 423,2013-01-14 19:15:00,
2013-01-14 14:21:00,56.7,42.0,-100.00,SE,129,3.6,6.5,56,-99.99,,,-99.99,WSDL version 423,2013-01-14 19:21:00,
2013-01-14 14:27:00,56.5,40.1,-100.00,SSE,150,4.1,9.8,53,0.00,,,0.00,WSDL version 423,2013-01-14 19:27:00,
2013-01-14 14:33:00,56.4,40.1,-100.00,SE,135,3.0,9.8,53,0.00,,,0.00,WSDL version 423,2013-01-14 19:33:00,
2013-01-14 14:39:00,56.4,39.3,-100.00,SE,135,1.2,5.8,54,0.00,,,0.00,WSDL version 423,2013-01-14 19:39:00,
2013-01-14 14:45:00,56.5,39.5,-100.00,ESE,123,2.8,4.3,53,0.00,,,0.00,WSDL version 423,2013-01-14 19:45:00,
2013-01-14 14:51:00,56.4,39.8,-100.00,SE,146,2.4,4.3,52,-99.99,,,-99.99,WSDL version 423,2013-01-14 19:51:00,
2013-01-14 14:57:00,56.3,39.4,-100.00,SSE,163,2.4,4.3,54,0.00,,,0.00,WSDL version 423,2013-01-14 19:57:00,
2013-01-14 15:03:00,56.2,39.5,-100.00,SSE,151,2.0,4.3,54,-99.99,,,-99.99,WSDL version 423,2013-01-14 20:03:00,
2013-01-14 15:09:00,56.0,39.2,-100.00,SE,133,2.2,4.3,50,0.00,,,0.00,WSDL version 423,2013-01-14 20:09:00,
2013-01-14 15:15:00,55.8,37.0,-100.00,SE,138,2.9,5.6,49,0.00,,,0.00,WSDL version 423,2013-01-14 20:15:00,
2013-01-14 15:21:00,55.6,36.6,-100.00,ESE,115,3.4,6.3,49,0.00,,,0.00,WSDL version 423,2013-01-14 20:21:00,
2013-01-14 15:27:00,55.6,37.6,-100.00,SE,143,1.7,6.3,52,0.00,,,0.00,WSDL version 423,2013-01-14 20:27:00,
2013-01-14 15:33:00,55.4,36.9,-100.00,SE,141,2.2,5.8,50,0.00,,,0.00,WSDL version 423,2013-01-14 20:33:00,
2013-01-14 15:39:00,55.4,37.7,-100.00,ESE,113,1.3,4.9,52,0.00,,,0.00,WSDL version 423,2013-01-14 20:39:00,
2013-01-14 15:45:00,55.2,37.8,-100.00,SSE,155,2.3,4.7,52,0.00,,,0.00,WSDL version 423,2013-01-14 20:45:00,
2013-01-14 15:51:00,55.0,36.4,-100.00,SE,143,2.2,5.8,50,0.00,,,0.00,WSDL version 423,2013-01-14 20:51:00,
2013-01-14 15:57:00,54.8,37.5,-100.00,SE,128,1.0,5.8,53,0.00,,,0.00,WSDL version 423,2013-01-14 20:57:00,
2013-01-14 16:03:00,54.5,36.9,-100.00,SSE,167,2.2,4.7,51,-99.99,,,-99.99,WSDL version 423,2013-01-14 21:03:00,
2013-01-14 16:09:00,54.3,35.6,-100.00,SW,231,2.1,4.7,49,0.00,,,0.00,WSDL version 423,2013-01-14 21:09:00,
2013-01-14 16:15:00,54.1,35.3,-100.00,SSE,158,2.6,4.3,49,0.00,,,0.00,WSDL version 423,2013-01-14 21:15:00,
2013-01-14 16:21:00,53.8,34.0,-100.00,ESE,113,3.4,7.6,47,0.00,,,0.00,WSDL version 423,2013-01-14 21:21:00,
2013-01-14 16:27:00,53.6,34.1,-100.00,SE,125,2.9,5.6,48,0.00,,,0.00,WSDL version 423,2013-01-14 21:27:00,
2013-01-14 16:33:00,53.4,34.1,-100.00,SSE,152,2.7,8.1,48,0.00,,,0.00,WSDL version 423,2013-01-14 21:33:00,
2013-01-14 16:39:00,53.1,33.8,-100.00,ESE,115,2.1,8.1,48,0.00,,,0.00,WSDL version 423,2013-01-14 21:39:00,
2013-01-14 16:45:00,52.9,33.3,-100.00,SE,138,1.5,5.8,48,0.00,,,0.00,WSDL version 423,2013-01-14 21:45:00,
2013-01-14 16:51:00,52.7,32.6,-100.00,SSE,150,2.8,4.5,47,0.00,,,0.00,WSDL version 423,2013-01-14 21:51:00,
2013-01-14 16:57:00,52.6,32.7,-100.00,ESE,120,2.1,4.5,46,0.00,,,0.00,WSDL version 423,2013-01-14 21:57:00,
2013-01-14 17:03:00,52.4,31.7,-100.00,SSE,161,3.7,7.2,44,0.00,,,0.00,WSDL version 423,2013-01-14 22:03:00,
2013-01-14 17:09:00,52.2,31.2,-100.00,SE,127,2.9,7.2,42,0.00,,,0.00,WSDL version 423,2013-01-14 22:09:00,
2013-01-14 17:15:00,52.0,30.8,-100.00,ESE,110,3.2,6.7,44,0.00,,,0.00,WSDL version 423,2013-01-14 22:15:00,
2013-01-14 17:21:00,51.8,31.5,-100.00,SSE,149,1.4,6.7,44,0.00,,,0.00,WSDL version 423,2013-01-14 22:21:00,
2013-01-14 17:27:00,51.8,30.8,-100.00,ESE,118,1.5,4.0,45,0.00,,,0.00,WSDL version 423,2013-01-14 22:27:00,
2013-01-14 17:33:00,51.6,31.0,-100.00,SSE,154,2.4,6.7,45,0.00,,,0.00,WSDL version 423,2013-01-14 22:33:00,
2013-01-14 17:39:00,51.5,30.9,-100.00,SE,146,2.4,6.7,45,0.00,,,0.00,WSDL version 423,2013-01-14 22:39:00,
2013-01-14 17:45:00,51.3,30.6,-100.00,SE,143,2.2,4.9,46,0.00,,,0.00,WSDL version 423,2013-01-14 22:45:00,
2013-01-14 17:51:00,51.1,29.7,-100.00,South,186,2.5,4.9,44,0.00,,,0.00,WSDL version 423,2013-01-14 22:51:00,
2013-01-14 17:57:00,51.1,30.4,-100.00,SE,124,2.4,3.6,45,0.00,,,0.00,WSDL version 423,2013-01-14 22:57:00,
2013-01-14 18:03:00,50.9,29.2,-100.00,SE,129,2.2,4.9,44,-99.99,,,-99.99,WSDL version 423,2013-01-14 23:03:00,
2013-01-14 18:09:00,50.8,27.8,-100.00,East,98,2.8,6.3,40,0.00,,,0.00,WSDL version 423,2013-01-14 23:09:00,
2013-01-14 18:15:00,50.7,28.3,-100.00,SE,143,1.8,6.3,42,0.00,,,0.00,WSDL version 423,2013-01-14 23:15:00,
2013-01-14 18:21:00,50.6,29.1,-100.00,SE,135,1.3,4.3,44,-99.99,,,-99.99,WSDL version 423,2013-01-14 23:21:00,
2013-01-14 18:27:00,50.4,28.9,-100.00,SE,146,2.8,5.4,42,0.00,,,0.00,WSDL version 423,2013-01-14 23:27:00,
2013-01-14 18:33:00,50.3,28.2,-100.00,SSE,150,3.0,5.4,42,0.00,,,0.00,WSDL version 423,2013-01-14 23:33:00,
2013-01-14 18:39:00,50.2,27.7,-100.00,East,100,2.7,6.0,39,0.00,,,0.00,WSDL version 423,2013-01-14 23:39:00,
2013-01-14 18:45:00,50.2,27.5,-100.00,SE,145,1.2,6.0,43,0.00,,,0.00,WSDL version 423,2013-01-14 23:45:00,
2013-01-14 18:51:00,50.2,28.6,-100.00,SE,135,1.7,2.9,43,0.00,,,0.00,WSDL version 423,2013-01-14 23:51:00,
2013-01-14 18:57:00,50.2,29.1,-100.00,ESE,110,2.0,3.6,43,0.00,,,0.00,WSDL version 423,2013-01-14 23:57:00,
2013-01-14 19:03:00,50.0,27.5,-100.00,ESE,113,2.5,7.6,41,0.00,,,0.00,WSDL version 423,2013-01-15 00:03:00,
2013-01-14 19:09:00,50.0,27.2,-100.00,SSE,158,2.6,8.7,43,0.00,,,0.00,WSDL version 423,2013-01-15 00:09:00,
2013-01-14 19:15:00,49.7,27.2,-100.00,ESE,123,3.1,5.8,41,0.00,,,0.00,WSDL version 423,2013-01-15 00:15:00,
2013-01-14 19:21:00,49.6,26.8,-100.00,East,101,1.9,6.3,42,0.00,,,0.00,WSDL version 423,2013-01-15 00:21:00,
2013-01-14 19:27:00,49.6,26.7,-100.00,ESE,118,5.1,8.1,40,0.00,,,0.00,WSDL version 423,2013-01-15 00:27:00,
2013-01-14 19:33:00,49.5,26.9,-100.00,SE,132,3.1,8.1,41,0.00,,,0.00,WSDL version 423,2013-01-15 00:33:00,
2013-01-14 19:39:00,49.3,27.0,-100.00,SSE,155,3.3,6.5,42,0.00,,,0.00,WSDL version 423,2013-01-15 00:39:00,
2013-01-14 19:45:00,49.1,26.7,-100.00,ESE,108,4.2,7.8,41,0.00,,,0.00,WSDL version 423,2013-01-15 00:45:00,
2013-01-14 19:51:00,48.9,26.2,-100.00,SSE,149,3.6,8.7,42,0.00,,,0.00,WSDL version 423,2013-01-15 00:51:00,
2013-01-14 19:57:00,48.7,26.3,-100.00,ESE,123,2.5,8.7,41,0.00,,,0.00,WSDL version 423,2013-01-15 00:57:00,
2013-01-14 20:03:00,48.6,26.2,-100.00,SE,132,2.8,6.3,42,0.00,,,0.00,WSDL version 423,2013-01-15 01:03:00,
2013-01-14 20:09:00,48.2,26.8,-100.00,SE,124,1.8,6.3,43,0.00,,,0.00,WSDL version 423,2013-01-15 01:09:00,
2013-01-14 20:15:00,48.0,26.7,-100.00,SE,146,2.0,8.5,43,0.00,,,0.00,WSDL version 423,2013-01-15 01:15:00,
2013-01-14 20:21:00,47.9,27.3,-100.00,SSE,150,1.7,4.9,45,0.00,,,0.00,WSDL version 423,2013-01-15 01:21:00,
2013-01-14 20:27:00,47.8,27.4,-100.00,East,93,0.7,3.1,44,0.00,,,0.00,WSDL version 423,2013-01-15 01:27:00,
2013-01-14 20:33:00,47.8,27.4,-100.00,ESE,119,2.0,5.6,44,0.00,,,0.00,WSDL version 423,2013-01-15 01:33:00,
2013-01-14 20:39:00,47.7,26.3,-100.00,SE,133,2.4,5.6,43,0.00,,,0.00,WSDL version 423,2013-01-15 01:39:00,
2013-01-14 20:45:00,47.5,26.5,-100.00,SE,124,1.9,4.5,43,0.00,,,0.00,WSDL version 423,2013-01-15 01:45:00,
2013-01-14 20:51:00,47.5,26.2,-100.00,ESE,119,2.3,4.9,44,0.00,,,0.00,WSDL version 423,2013-01-15 01:51:00,
2013-01-14 20:57:00,47.4,26.6,-100.00,SSE,160,3.1,5.8,43,0.00,,,0.00,WSDL version 423,2013-01-15 01:57:00,
2013-01-14 21:03:00,47.3,25.4,-100.00,SE,128,2.7,5.6,42,0.00,,,0.00,WSDL version 423,2013-01-15 02:03:00,
2013-01-14 21:09:00,46.9,26.5,-100.00,SSE,155,1.7,4.0,46,0.00,,,0.00,WSDL version 423,2013-01-15 02:09:00,
2013-01-14 21:15:00,46.5,26.9,-100.00,SSE,148,1.1,4.7,46,0.00,,,0.00,WSDL version 423,2013-01-15 02:15:00,
2013-01-14 21:21:00,46.4,26.7,-100.00,South,188,1.4,5.6,47,0.00,,,0.00,WSDL version 423,2013-01-15 02:21:00,
2013-01-14 21:27:00,46.0,27.4,-100.00,SSE,160,2.0,3.8,48,0.00,,,0.00,WSDL version 423,2013-01-15 02:27:00,
2013-01-14 21:33:00,45.8,27.6,-100.00,SSE,152,2.7,5.4,49,0.00,,,0.00,WSDL version 423,2013-01-15 02:33:00,
2013-01-14 21:39:00,45.5,27.7,-100.00,SSE,148,2.6,5.4,50,0.00,,,0.00,WSDL version 423,2013-01-15 02:39:00,
2013-01-14 21:45:00,45.2,27.9,-100.00,SE,131,2.5,4.7,51,0.00,,,0.00,WSDL version 423,2013-01-15 02:45:00,
2013-01-14 21:51:00,44.4,28.4,-100.00,SE,143,2.8,5.6,54,0.00,,,0.00,WSDL version 423,2013-01-15 02:51:00,
2013-01-14 21:57:00,43.7,28.9,-100.00,SSE,152,2.3,4.9,56,0.00,,,0.00,WSDL version 423,2013-01-15 02:57:00,
2013-01-14 22:03:00,43.4,29.2,-100.00,SE,143,1.7,4.3,57,0.00,,,0.00,WSDL version 423,2013-01-15 03:03:00,
2013-01-14 22:09:00,43.0,29.7,-100.00,South,190,0.4,3.6,59,0.00,,,0.00,WSDL version 423,2013-01-15 03:09:00,
2013-01-14 22:15:00,42.6,29.5,-100.00,South,190,0.9,3.6,60,0.00,,,0.00,WSDL version 423,2013-01-15 03:15:00,
2013-01-14 22:21:00,42.3,29.9,-100.00,SE,129,0.4,4.3,61,-99.99,,,-99.99,WSDL version 423,2013-01-15 03:21:00,
2013-01-14 22:27:00,42.1,30.1,-100.00,SSE,158,0.5,4.0,62,0.04,,,0.04,WSDL version 423,2013-01-15 03:27:00,
2013-01-14 22:33:00,41.8,29.4,-100.00,WSW,245,0.0,2.0,61,-99.99,,,-99.99,WSDL version 423,2013-01-15 03:33:00,
2013-01-14 22:39:00,41.7,29.7,-100.00,East,90,0.0,1.3,62,-99.99,,,-99.99,WSDL version 423,2013-01-15 03:39:00,
2013-01-14 22:45:00,41.7,29.7,-100.00,East,90,0.0,2.2,63,0.04,,,0.04,WSDL version 423,2013-01-15 03:45:00,
2013-01-14 22:51:00,41.6,29.9,-100.00,ESE,115,0.3,2.5,63,0.04,,,0.04,WSDL version 423,2013-01-15 03:51:00,
2013-01-14 22:57:00,41.5,29.9,-100.00,East,90,0.0,2.5,63,0.04,,,0.04,WSDL version 423,2013-01-15 03:57:00,
2013-01-14 23:03:00,41.5,29.9,-100.00,West,270,0.9,2.2,63,0.04,,,0.04,WSDL version 423,2013-01-15 04:03:00,
2013-01-14 23:09:00,41.5,30.1,-100.00,North,360,0.0,1.6,63,0.04,,,0.04,WSDL version 423,2013-01-15 04:09:00,
2013-01-14 23:15:00,41.4,30.2,-100.00,NE,55,0.3,2.5,66,0.08,,,0.08,WSDL version 423,2013-01-15 04:15:00,
2013-01-14 23:21:00,41.5,30.9,-100.00,SE,135,0.2,2.5,65,0.08,,,0.08,WSDL version 423,2013-01-15 04:21:00,
2013-01-14 23:27:00,41.4,31.1,-100.00,South,170,0.0,3.4,67,0.04,,,0.08,WSDL version 423,2013-01-15 04:27:00,
2013-01-14 23:33:00,41.4,31.2,-100.00,ESE,115,0.0,2.9,67,0.04,,,0.08,WSDL version 423,2013-01-15 04:33:00,
2013-01-14 23:39:00,41.2,31.4,-100.00,SSE,158,0.6,5.4,68,0.04,,,0.08,WSDL version 423,2013-01-15 04:39:00,
2013-01-14 23:45:00,41.0,31.7,-100.00,SSE,165,1.3,3.1,69,0.04,,,0.08,WSDL version 423,2013-01-15 04:45:00,
2013-01-14 23:51:00,41.0,31.6,-100.00,SE,125,0.6,3.1,69,0.04,,,0.08,WSDL version 423,2013-01-15 04:51:00,
2013-01-14 23:57:00,41.0,31.6,-100.00,SE,133,1.1,2.5,69,0.04,,,0.00,WSDL version 423,2013-01-15 04:57:00,